createdAt,value
2019-06-08T00:00:20.721Z,0.00
2019-06-08T00:01:20.575Z,0.00
2019-06-08T00:02:20.687Z,0.00
2019-06-08T00:03:20.689Z,0.00
2019-06-08T00:04:20.655Z,0.00
2019-06-08T00:05:21.017Z,0.00
2019-06-08T00:06:20.785Z,0.00
2019-06-08T00:07:20.805Z,0.00
2019-06-08T00:08:20.884Z,0.00
2019-06-08T00:09:20.851Z,0.00
2019-06-08T00:10:22.717Z,0.00
2019-06-08T00:11:21.140Z,0.00
2019-06-08T00:12:19.608Z,0.00
2019-06-08T00:13:19.826Z,0.00
2019-06-08T00:14:19.580Z,0.00
2019-06-08T00:15:20.268Z,0.00
2019-06-08T00:16:19.559Z,0.00
2019-06-08T00:17:34.573Z,0.00
2019-06-08T00:18:21.541Z,0.00
2019-06-08T00:19:19.529Z,0.00
2019-06-08T00:20:19.799Z,0.00
2019-06-08T00:21:19.680Z,0.00
2019-06-08T00:22:19.800Z,0.00
2019-06-08T00:23:20.080Z,0.00
2019-06-08T00:24:19.898Z,0.00
2019-06-08T00:25:20.827Z,0.00
2019-06-08T00:26:20.060Z,0.00
2019-06-08T00:27:20.214Z,0.00
2019-06-08T00:28:20.447Z,0.00
2019-06-08T00:29:20.325Z,0.00
2019-06-08T00:30:19.421Z,0.00
2019-06-08T00:31:20.118Z,0.00
2019-06-08T00:32:20.343Z,0.00
2019-06-08T00:33:20.494Z,0.00
2019-06-08T00:34:20.443Z,0.00
2019-06-08T00:35:20.670Z,0.00
2019-06-08T00:36:19.337Z,0.00
2019-06-08T00:37:19.353Z,0.00
2019-06-08T00:38:19.345Z,0.00
2019-06-08T00:39:19.327Z,0.00
2019-06-08T00:40:19.337Z,0.00
2019-06-08T00:41:20.660Z,0.00
2019-06-08T00:42:19.371Z,0.00
2019-06-08T00:43:19.284Z,0.00
2019-06-08T00:44:19.321Z,0.00
2019-06-08T00:45:20.027Z,0.00
2019-06-08T00:46:19.437Z,0.00
2019-06-08T00:47:20.286Z,0.00
2019-06-08T00:48:19.813Z,0.00
2019-06-08T00:49:19.204Z,0.00
2019-06-08T00:50:19.217Z,0.00
2019-06-08T00:51:19.184Z,0.00
2019-06-08T00:52:19.194Z,0.00
2019-06-08T00:53:19.762Z,0.00
2019-06-08T00:54:19.311Z,0.00
2019-06-08T00:55:19.483Z,0.00
2019-06-08T00:56:19.424Z,0.00
2019-06-08T00:57:19.718Z,0.00
2019-06-08T00:58:20.394Z,0.00
2019-06-08T00:59:19.941Z,0.00
2019-06-08T01:00:20.424Z,0.00
2019-06-08T01:01:20.805Z,0.00
2019-06-08T01:02:20.151Z,0.00
2019-06-08T01:03:19.615Z,0.00
2019-06-08T01:04:19.042Z,0.00
2019-06-08T01:05:19.878Z,0.00
2019-06-08T01:06:19.054Z,0.00
2019-06-08T01:07:19.927Z,0.00
2019-06-08T01:08:20.663Z,0.00
2019-06-08T01:09:20.139Z,0.00
2019-06-08T01:10:19.233Z,0.00
2019-06-08T01:11:18.971Z,0.00
2019-06-08T01:12:19.034Z,0.00
2019-06-08T01:13:18.961Z,0.00
2019-06-08T01:14:18.974Z,0.00
2019-06-08T01:15:24.847Z,0.00
2019-06-08T01:16:20.933Z,0.00
2019-06-08T01:17:19.336Z,0.00
2019-06-08T01:18:20.749Z,0.00
2019-06-08T01:19:19.232Z,0.00
2019-06-08T01:20:19.481Z,0.00
2019-06-08T01:21:19.414Z,0.00
2019-06-08T01:22:19.495Z,0.00
2019-06-08T01:23:19.467Z,0.00
2019-06-08T01:24:19.640Z,0.00
2019-06-08T01:25:20.122Z,0.00
2019-06-08T01:26:19.809Z,0.00
2019-06-08T01:27:19.986Z,0.00
2019-06-08T01:28:19.936Z,0.00
2019-06-08T01:29:20.113Z,0.00
2019-06-08T01:30:20.000Z,0.00
2019-06-08T01:31:20.276Z,0.00
2019-06-08T01:32:18.767Z,0.00
2019-06-08T01:33:18.738Z,0.00
2019-06-08T01:34:18.709Z,0.00
2019-06-08T01:35:18.713Z,0.00
2019-06-08T01:36:18.698Z,0.00
2019-06-08T01:37:18.670Z,0.00
2019-06-08T01:38:18.715Z,0.00
2019-06-08T01:39:18.668Z,0.00
2019-06-08T01:40:18.647Z,0.00
2019-06-08T01:41:18.628Z,0.00
2019-06-08T01:42:18.618Z,0.00
2019-06-08T01:43:18.626Z,0.00
2019-06-08T01:44:18.590Z,0.00
2019-06-08T01:45:18.587Z,0.00
2019-06-08T01:46:18.590Z,0.00
2019-06-08T01:47:18.606Z,0.00
2019-06-08T01:48:20.541Z,0.00
2019-06-08T01:49:18.547Z,0.00
2019-06-08T01:50:18.526Z,0.00
2019-06-08T01:51:18.550Z,0.00
2019-06-08T01:52:18.503Z,0.00
2019-06-08T01:53:18.514Z,0.00
2019-06-08T01:54:18.476Z,0.00
2019-06-08T01:55:18.484Z,0.00
2019-06-08T01:56:18.464Z,0.00
2019-06-08T01:57:18.454Z,0.00
2019-06-08T01:58:18.446Z,0.00
2019-06-08T01:59:18.424Z,0.00
2019-06-08T02:00:29.679Z,0.00
2019-06-08T02:01:19.409Z,0.00
2019-06-08T02:02:18.402Z,0.00
2019-06-08T02:03:18.471Z,0.00
2019-06-08T02:04:18.375Z,0.00
2019-06-08T02:05:18.374Z,0.00
2019-06-08T02:06:18.479Z,0.00
2019-06-08T02:07:18.411Z,0.00
2019-06-08T02:08:18.408Z,0.00
2019-06-08T02:09:18.343Z,0.00
2019-06-08T02:10:18.328Z,0.00
2019-06-08T02:11:18.294Z,0.00
2019-06-08T02:12:18.283Z,0.00
2019-06-08T02:13:18.315Z,0.00
2019-06-08T02:14:18.271Z,0.00
2019-06-08T02:15:18.261Z,0.00
2019-06-08T02:16:18.243Z,0.00
2019-06-08T02:17:18.223Z,0.00
2019-06-08T02:18:18.243Z,0.00
2019-06-08T02:19:18.263Z,0.00
2019-06-08T02:20:18.212Z,0.00
2019-06-08T02:21:18.183Z,0.00
2019-06-08T02:22:18.172Z,0.00
2019-06-08T02:23:18.162Z,0.00
2019-06-08T02:24:18.163Z,0.00
2019-06-08T02:25:18.160Z,0.00
2019-06-08T02:26:18.122Z,0.00
2019-06-08T02:27:18.134Z,0.00
2019-06-08T02:28:18.105Z,0.00
2019-06-08T02:29:18.101Z,0.00
2019-06-08T02:30:18.082Z,0.00
2019-06-08T02:31:18.077Z,0.00
2019-06-08T02:32:18.062Z,0.00
2019-06-08T02:33:18.072Z,0.00
2019-06-08T02:34:18.059Z,0.00
2019-06-08T02:35:18.022Z,0.00
2019-06-08T02:36:18.019Z,0.00
2019-06-08T02:37:18.020Z,0.00
2019-06-08T02:38:17.990Z,0.00
2019-06-08T02:39:17.993Z,0.00
2019-06-08T02:40:17.971Z,0.00
2019-06-08T02:41:17.972Z,0.00
2019-06-08T02:42:17.982Z,0.00
2019-06-08T02:43:17.941Z,0.00
2019-06-08T02:44:17.941Z,0.00
2019-06-08T02:45:17.910Z,0.00
2019-06-08T02:46:17.922Z,0.00
2019-06-08T02:47:17.890Z,0.00
2019-06-08T02:48:17.881Z,0.00
2019-06-08T02:49:17.880Z,0.00
2019-06-08T02:50:17.860Z,0.00
2019-06-08T02:51:17.870Z,0.00
2019-06-08T02:52:17.839Z,0.00
2019-06-08T02:53:17.828Z,0.00
2019-06-08T02:54:17.829Z,0.00
2019-06-08T02:55:17.811Z,0.00
2019-06-08T02:56:17.820Z,0.00
2019-06-08T02:57:17.790Z,0.00
2019-06-08T02:58:17.771Z,0.00
2019-06-08T02:59:17.778Z,0.00
2019-06-08T03:00:17.758Z,0.00
2019-06-08T03:01:17.759Z,0.00
2019-06-08T03:02:17.736Z,0.00
2019-06-08T03:03:17.713Z,0.00
2019-06-08T03:04:17.712Z,0.00
2019-06-08T03:05:17.735Z,4.00
2019-06-08T03:06:17.685Z,0.00
2019-06-08T03:07:17.680Z,4.00
2019-06-08T03:08:17.693Z,4.00
2019-06-08T03:09:17.662Z,4.00
2019-06-08T03:10:17.660Z,8.00
2019-06-08T03:11:17.629Z,4.00
2019-06-08T03:12:17.608Z,4.00
2019-06-08T03:13:17.598Z,4.00
2019-06-08T03:14:17.586Z,4.00
2019-06-08T03:15:17.609Z,4.00
2019-06-08T03:16:17.581Z,8.00
2019-06-08T03:17:17.568Z,8.00
2019-06-08T03:18:17.546Z,8.00
2019-06-08T03:19:22.295Z,12.00
2019-06-08T03:20:18.557Z,12.00
2019-06-08T03:21:17.524Z,12.00
2019-06-08T03:22:17.505Z,16.00
2019-06-08T03:23:17.507Z,16.00
2019-06-08T03:24:17.485Z,16.00
2019-06-08T03:25:17.477Z,12.00
2019-06-08T03:26:17.466Z,20.00
2019-06-08T03:27:17.454Z,24.00
2019-06-08T03:28:17.436Z,32.00
2019-06-08T03:29:17.425Z,40.00
2019-06-08T03:30:19.365Z,44.00
2019-06-08T03:31:17.407Z,44.00
2019-06-08T03:32:17.395Z,48.00
2019-06-08T03:33:17.375Z,52.00
2019-06-08T03:34:17.395Z,60.00
2019-06-08T03:35:17.390Z,68.00
2019-06-08T03:36:17.365Z,72.00
2019-06-08T03:37:17.334Z,72.00
2019-06-08T03:38:17.334Z,80.00
2019-06-08T03:39:17.326Z,92.00
2019-06-08T03:40:17.322Z,100.00
2019-06-08T03:41:17.301Z,108.00
2019-06-08T03:42:17.284Z,108.00
2019-06-08T03:43:17.274Z,116.00
2019-06-08T03:44:17.271Z,124.00
2019-06-08T03:45:17.272Z,136.00
2019-06-08T03:46:17.256Z,148.00
2019-06-08T03:47:17.251Z,156.00
2019-06-08T03:48:17.223Z,152.00
2019-06-08T03:49:17.202Z,136.00
2019-06-08T03:50:17.212Z,108.00
2019-06-08T03:51:17.203Z,84.00
2019-06-08T03:52:17.180Z,92.00
2019-06-08T03:53:17.164Z,116.00
2019-06-08T03:54:17.160Z,148.00
2019-06-08T03:55:17.164Z,164.00
2019-06-08T03:56:17.132Z,184.00
2019-06-08T03:57:17.143Z,224.00
2019-06-08T03:58:17.111Z,268.00
2019-06-08T03:59:17.102Z,288.00
2019-06-08T04:00:17.128Z,292.00
2019-06-08T04:01:17.097Z,296.00
2019-06-08T04:02:17.070Z,288.00
2019-06-08T04:03:17.059Z,296.00
2019-06-08T04:04:17.054Z,316.00
2019-06-08T04:05:17.031Z,332.00
2019-06-08T04:06:17.053Z,344.00
2019-06-08T04:07:17.010Z,368.00
2019-06-08T04:08:17.009Z,372.00
2019-06-08T04:09:16.991Z,384.00
2019-06-08T04:10:16.979Z,400.00
2019-06-08T04:11:16.980Z,424.00
2019-06-08T04:12:16.961Z,464.00
2019-06-08T04:13:16.940Z,500.00
2019-06-08T04:14:16.948Z,484.00
2019-06-08T04:15:16.920Z,456.00
2019-06-08T04:16:16.927Z,448.00
2019-06-08T04:17:16.898Z,448.00
2019-06-08T04:18:16.889Z,456.00
2019-06-08T04:19:16.897Z,468.00
2019-06-08T04:20:16.868Z,460.00
2019-06-08T04:21:16.868Z,448.00
2019-06-08T04:22:16.856Z,456.00
2019-06-08T04:23:16.861Z,472.00
2019-06-08T04:24:16.828Z,480.00
2019-06-08T04:25:16.825Z,496.00
2019-06-08T04:26:16.862Z,496.00
2019-06-08T04:27:16.799Z,480.00
2019-06-08T04:28:16.779Z,472.00
2019-06-08T04:29:16.786Z,500.00
2019-06-08T04:30:16.756Z,568.00
2019-06-08T04:31:16.775Z,652.00
2019-06-08T04:32:16.753Z,716.00
2019-06-08T04:33:16.735Z,712.00
2019-06-08T04:34:16.742Z,708.00
2019-06-08T04:35:16.706Z,728.00
2019-06-08T04:36:16.707Z,768.00
2019-06-08T04:37:16.695Z,768.00
2019-06-08T04:38:16.695Z,700.00
2019-06-08T04:39:16.680Z,652.00
2019-06-08T04:40:16.658Z,628.00
2019-06-08T04:41:16.658Z,624.00
2019-06-08T04:42:16.639Z,628.00
2019-06-08T04:43:16.626Z,656.00
2019-06-08T04:44:16.670Z,684.00
2019-06-08T04:45:16.594Z,676.00
2019-06-08T04:46:16.607Z,644.00
2019-06-08T04:47:16.584Z,616.00
2019-06-08T04:48:16.572Z,612.00
2019-06-08T04:49:16.563Z,612.00
2019-06-08T04:50:23.501Z,608.00
2019-06-08T04:51:17.556Z,608.00
2019-06-08T04:52:16.539Z,624.00
2019-06-08T04:53:16.515Z,652.00
2019-06-08T04:54:16.507Z,696.00
2019-06-08T04:55:16.523Z,720.00
2019-06-08T04:56:16.497Z,740.00
2019-06-08T04:57:16.475Z,720.00
2019-06-08T04:58:16.496Z,716.00
2019-06-08T04:59:16.455Z,744.00
2019-06-08T05:00:16.454Z,792.00
2019-06-08T05:01:16.443Z,804.00
2019-06-08T05:02:16.424Z,768.00
2019-06-08T05:03:16.412Z,724.00
2019-06-08T05:04:16.403Z,712.00
2019-06-08T05:05:16.394Z,708.00
2019-06-08T05:06:16.429Z,700.00
2019-06-08T05:07:16.364Z,712.00
2019-06-08T05:08:16.355Z,724.00
2019-06-08T05:09:16.358Z,740.00
2019-06-08T05:10:16.349Z,748.00
2019-06-08T05:11:16.352Z,744.00
2019-06-08T05:12:16.324Z,716.00
2019-06-08T05:13:16.302Z,684.00
2019-06-08T05:14:16.292Z,660.00
2019-06-08T05:15:16.281Z,648.00
2019-06-08T05:16:16.282Z,652.00
2019-06-08T05:17:16.282Z,640.00
2019-06-08T05:18:16.253Z,636.00
2019-06-08T05:19:16.240Z,640.00
2019-06-08T05:20:16.233Z,664.00
2019-06-08T05:21:16.240Z,688.00
2019-06-08T05:22:16.210Z,708.00
2019-06-08T05:23:16.199Z,748.00
2019-06-08T05:24:16.218Z,768.00
2019-06-08T05:25:16.189Z,780.00
2019-06-08T05:26:16.181Z,920.00
2019-06-08T05:27:16.159Z,832.00
2019-06-08T05:28:16.140Z,864.00
2019-06-08T05:29:16.130Z,960.00
2019-06-08T05:30:16.119Z,1136.00
2019-06-08T05:31:16.139Z,1156.00
2019-06-08T05:32:16.112Z,1020.00
2019-06-08T05:33:16.091Z,988.00
2019-06-08T05:34:16.078Z,1156.00
2019-06-08T05:35:16.079Z,1300.00
2019-06-08T05:36:16.058Z,1504.00
2019-06-08T05:37:16.058Z,1416.00
2019-06-08T05:38:16.040Z,1340.00
2019-06-08T05:39:16.026Z,1368.00
2019-06-08T05:40:16.023Z,1368.00
2019-06-08T05:41:15.999Z,1260.00
2019-06-08T05:42:15.997Z,1312.00
2019-06-08T05:43:15.977Z,1508.00
2019-06-08T05:44:15.978Z,1464.00
2019-06-08T05:45:15.960Z,1320.00
2019-06-08T05:46:15.955Z,1388.00
2019-06-08T05:47:15.948Z,1312.00
2019-06-08T05:48:15.929Z,1368.00
2019-06-08T05:49:15.917Z,1324.00
2019-06-08T05:50:15.908Z,1348.00
2019-06-08T05:51:15.905Z,1244.00
2019-06-08T05:52:15.886Z,1072.00
2019-06-08T05:53:15.866Z,1072.00
2019-06-08T05:54:15.856Z,1136.00
2019-06-08T05:55:15.848Z,1032.00
2019-06-08T05:56:15.836Z,1200.00
2019-06-08T05:57:15.848Z,1204.00
2019-06-08T05:58:15.806Z,1000.00
2019-06-08T05:59:15.805Z,1004.00
2019-06-08T06:00:15.795Z,1004.00
2019-06-08T06:01:23.574Z,1008.00
2019-06-08T06:02:15.803Z,984.00
2019-06-08T06:03:15.766Z,988.00
2019-06-08T06:04:15.743Z,980.00
2019-06-08T06:05:15.734Z,1016.00
2019-06-08T06:06:15.724Z,988.00
2019-06-08T06:07:15.723Z,864.00
2019-06-08T06:08:18.946Z,908.00
2019-06-08T06:09:15.692Z,972.00
2019-06-08T06:10:15.683Z,920.00
2019-06-08T06:11:15.671Z,968.00
2019-06-08T06:12:15.672Z,980.00
2019-06-08T06:13:15.644Z,984.00
2019-06-08T06:14:15.641Z,984.00
2019-06-08T06:15:15.632Z,992.00
2019-06-08T06:16:15.612Z,1000.00
2019-06-08T06:17:15.620Z,1020.00
2019-06-08T06:18:15.603Z,1100.00
2019-06-08T06:19:15.581Z,1008.00
2019-06-08T06:20:15.580Z,1004.00
2019-06-08T06:21:15.561Z,1000.00
2019-06-08T06:22:15.562Z,1004.00
2019-06-08T06:23:15.541Z,1000.00
2019-06-08T06:24:15.541Z,1020.00
2019-06-08T06:25:15.539Z,1000.00
2019-06-08T06:26:15.506Z,1012.00
2019-06-08T06:27:15.490Z,1012.00
2019-06-08T06:28:15.495Z,1008.00
2019-06-08T06:29:15.470Z,1008.00
2019-06-08T06:30:15.469Z,1008.00
2019-06-08T06:31:15.454Z,1016.00
2019-06-08T06:32:15.440Z,1024.00
2019-06-08T06:33:15.456Z,1040.00
2019-06-08T06:34:15.421Z,1024.00
2019-06-08T06:35:15.400Z,1028.00
2019-06-08T06:36:15.389Z,1044.00
2019-06-08T06:37:15.382Z,1028.00
2019-06-08T06:38:15.382Z,1024.00
2019-06-08T06:39:15.362Z,1032.00
2019-06-08T06:40:15.346Z,1028.00
2019-06-08T06:41:15.329Z,1032.00
2019-06-08T06:42:15.329Z,1024.00
2019-06-08T06:43:15.319Z,1024.00
2019-06-08T06:44:15.299Z,1024.00
2019-06-08T06:45:15.298Z,1024.00
2019-06-08T06:46:15.279Z,1024.00
2019-06-08T06:47:15.269Z,1028.00
2019-06-08T06:48:15.267Z,1024.00
2019-06-08T06:49:15.241Z,1028.00
2019-06-08T06:50:15.248Z,1028.00
2019-06-08T06:51:25.709Z,1024.00
2019-06-08T06:52:16.208Z,1024.00
2019-06-08T06:53:15.217Z,1028.00
2019-06-08T06:54:15.196Z,1024.00
2019-06-08T06:55:15.176Z,1044.00
2019-06-08T06:56:15.166Z,1032.00
2019-06-08T06:57:15.157Z,1028.00
2019-06-08T06:58:15.147Z,1032.00
2019-06-08T06:59:15.127Z,1028.00
2019-06-08T07:00:15.117Z,1028.00
2019-06-08T07:01:15.107Z,1036.00
2019-06-08T07:02:15.097Z,1044.00
2019-06-08T07:03:15.097Z,1036.00
2019-06-08T07:04:15.066Z,1036.00
2019-06-08T07:05:15.064Z,1048.00
2019-06-08T07:06:15.046Z,1040.00
2019-06-08T07:07:15.035Z,1056.00
2019-06-08T07:08:15.035Z,1068.00
2019-06-08T07:09:15.025Z,1052.00
2019-06-08T07:10:14.995Z,1048.00
2019-06-08T07:11:14.985Z,1064.00
2019-06-08T07:12:14.975Z,1052.00
2019-06-08T07:13:14.975Z,1060.00
2019-06-08T07:14:14.954Z,1076.00
2019-06-08T07:15:15.009Z,1068.00
2019-06-08T07:16:18.862Z,1068.00
2019-06-08T07:17:15.170Z,1056.00
2019-06-08T07:18:14.924Z,1064.00
2019-06-08T07:19:14.910Z,1060.00
2019-06-08T07:20:14.932Z,1076.00
2019-06-08T07:21:14.878Z,1060.00
2019-06-08T07:22:14.858Z,1060.00
2019-06-08T07:23:14.865Z,1056.00
2019-06-08T07:24:14.833Z,1056.00
2019-06-08T07:25:14.822Z,1056.00
2019-06-08T07:26:14.804Z,1056.00
2019-06-08T07:27:14.805Z,1068.00
2019-06-08T07:28:14.814Z,1096.00
2019-06-08T07:29:16.026Z,1068.00
2019-06-08T07:30:14.769Z,1016.00
2019-06-08T07:31:14.742Z,964.00
2019-06-08T07:32:14.743Z,1060.00
2019-06-08T07:33:14.724Z,1064.00
2019-06-08T07:34:14.722Z,1072.00
2019-06-08T07:35:14.693Z,1068.00
2019-06-08T07:36:14.682Z,1076.00
2019-06-08T07:37:14.672Z,1068.00
2019-06-08T07:38:14.662Z,1072.00
2019-06-08T07:39:14.662Z,1076.00
2019-06-08T07:40:14.641Z,1072.00
2019-06-08T07:41:14.630Z,1076.00
2019-06-08T07:42:14.621Z,1068.00
2019-06-08T07:43:14.612Z,1068.00
2019-06-08T07:44:14.606Z,1076.00
2019-06-08T07:45:14.580Z,1072.00
2019-06-08T07:46:14.561Z,1072.00
2019-06-08T07:47:14.561Z,1068.00
2019-06-08T07:48:14.542Z,1068.00
2019-06-08T07:49:14.548Z,1060.00
2019-06-08T07:50:14.520Z,1084.00
2019-06-08T07:51:14.512Z,1072.00
2019-06-08T07:52:14.492Z,1084.00
2019-06-08T07:53:14.489Z,1072.00
2019-06-08T07:54:14.491Z,1072.00
2019-06-08T07:55:14.459Z,1076.00
2019-06-08T07:56:14.450Z,1076.00
2019-06-08T07:57:14.438Z,1104.00
2019-06-08T07:58:14.428Z,1080.00
2019-06-08T07:59:14.432Z,1084.00
2019-06-08T08:00:14.399Z,1076.00
2019-06-08T08:01:14.398Z,1080.00
2019-06-08T08:02:14.378Z,1100.00
2019-06-08T08:03:14.369Z,1084.00
2019-06-08T08:04:14.368Z,1076.00
2019-06-08T08:05:14.351Z,1080.00
2019-06-08T08:06:14.338Z,1080.00
2019-06-08T08:07:14.330Z,1076.00
2019-06-08T08:08:14.308Z,1084.00
2019-06-08T08:09:14.309Z,1084.00
2019-06-08T08:10:14.456Z,1080.00
2019-06-08T08:11:14.277Z,1084.00
2019-06-08T08:12:14.269Z,1104.00
2019-06-08T08:13:14.259Z,1088.00
2019-06-08T08:14:14.258Z,1084.00
2019-06-08T08:15:14.236Z,1088.00
2019-06-08T08:16:14.218Z,1084.00
2019-06-08T08:17:14.209Z,1084.00
2019-06-08T08:18:14.197Z,1032.00
2019-06-08T08:19:14.201Z,1092.00
2019-06-08T08:20:14.175Z,1088.00
2019-06-08T08:21:22.144Z,1096.00
2019-06-08T08:22:23.141Z,1112.00
2019-06-08T08:23:17.273Z,1088.00
2019-06-08T08:24:14.137Z,1084.00
2019-06-08T08:25:14.121Z,1088.00
2019-06-08T08:26:14.106Z,1088.00
2019-06-08T08:27:14.096Z,1084.00
2019-06-08T08:28:14.076Z,1080.00
2019-06-08T08:29:14.077Z,1084.00
2019-06-08T08:30:14.056Z,1080.00
2019-06-08T08:31:15.365Z,1088.00
2019-06-08T08:32:14.035Z,1080.00
2019-06-08T08:33:14.026Z,1092.00
2019-06-08T08:34:14.024Z,1088.00
2019-06-08T08:35:13.995Z,1084.00
2019-06-08T08:36:13.986Z,1080.00
2019-06-08T08:37:13.975Z,1084.00
2019-06-08T08:38:13.965Z,1092.00
2019-06-08T08:39:13.965Z,1092.00
2019-06-08T08:40:13.934Z,1092.00
2019-06-08T08:41:13.946Z,1092.00
2019-06-08T08:42:13.923Z,1092.00
2019-06-08T08:43:13.905Z,1100.00
2019-06-08T08:44:13.905Z,1092.00
2019-06-08T08:45:13.884Z,1096.00
2019-06-08T08:46:13.874Z,1104.00
2019-06-08T08:47:13.863Z,1084.00
2019-06-08T08:48:24.602Z,1112.00
2019-06-08T08:49:14.844Z,1100.00
2019-06-08T08:50:13.823Z,1096.00
2019-06-08T08:51:13.814Z,1100.00
2019-06-08T08:52:13.803Z,1096.00
2019-06-08T08:53:13.783Z,1140.00
2019-06-08T08:54:13.811Z,1120.00
2019-06-08T08:55:13.773Z,1116.00
2019-06-08T08:56:13.760Z,1156.00
2019-06-08T08:57:13.742Z,1152.00
2019-06-08T08:58:13.731Z,1140.00
2019-06-08T08:59:13.723Z,1128.00
2019-06-08T09:00:13.722Z,1116.00
2019-06-08T09:01:13.697Z,1092.00
2019-06-08T09:02:13.694Z,1000.00
2019-06-08T09:03:26.048Z,1100.00
2019-06-08T09:04:14.663Z,1096.00
2019-06-08T09:05:13.661Z,1112.00
2019-06-08T09:06:13.632Z,1116.00
2019-06-08T09:07:13.622Z,1108.00
2019-06-08T09:08:13.617Z,1100.00
2019-06-08T09:09:13.612Z,1116.00
2019-06-08T09:10:13.600Z,1096.00
2019-06-08T09:11:13.572Z,1104.00
2019-06-08T09:12:13.564Z,1096.00
2019-06-08T09:13:13.552Z,1124.00
2019-06-08T09:14:14.382Z,1112.00
2019-06-08T09:15:13.547Z,1116.00
2019-06-08T09:16:13.521Z,1112.00
2019-06-08T09:17:13.502Z,1112.00
2019-06-08T09:18:13.498Z,1108.00
2019-06-08T09:19:13.471Z,1124.00
2019-06-08T09:20:15.860Z,1124.00
2019-06-08T09:21:14.451Z,1112.00
2019-06-08T09:22:13.443Z,1120.00
2019-06-08T09:23:16.633Z,1120.00
2019-06-08T09:24:14.411Z,1108.00
2019-06-08T09:25:13.755Z,1108.00
2019-06-08T09:26:13.474Z,1108.00
2019-06-08T09:27:13.380Z,1108.00
2019-06-08T09:28:13.370Z,1112.00
2019-06-08T09:29:13.404Z,1116.00
2019-06-08T09:30:13.350Z,1128.00
2019-06-08T09:31:13.349Z,1120.00
2019-06-08T09:32:13.319Z,1128.00
2019-06-08T09:33:13.309Z,1132.00
2019-06-08T09:34:15.404Z,1128.00
2019-06-08T09:35:13.289Z,1128.00
2019-06-08T09:36:13.271Z,1124.00
2019-06-08T09:37:13.266Z,1124.00
2019-06-08T09:38:13.243Z,1124.00
2019-06-08T09:39:13.688Z,1148.00
2019-06-08T09:40:13.245Z,1124.00
2019-06-08T09:41:13.207Z,1128.00
2019-06-08T09:42:13.194Z,1132.00
2019-06-08T09:43:13.497Z,1140.00
2019-06-08T09:44:13.227Z,1148.00
2019-06-08T09:45:13.180Z,1136.00
2019-06-08T09:46:13.138Z,1136.00
2019-06-08T09:47:13.217Z,1132.00
2019-06-08T09:48:13.118Z,1136.00
2019-06-08T09:49:13.127Z,1136.00
2019-06-08T09:50:13.099Z,1144.00
2019-06-08T09:51:13.078Z,1140.00
2019-06-08T09:52:13.062Z,1136.00
2019-06-08T09:53:23.771Z,1140.00
2019-06-08T09:54:14.105Z,1136.00
2019-06-08T09:55:13.057Z,1140.00
2019-06-08T09:56:13.027Z,1144.00
2019-06-08T09:57:12.999Z,1148.00
2019-06-08T09:58:13.003Z,1144.00
2019-06-08T09:59:15.261Z,1164.00
2019-06-08T10:00:18.302Z,1152.00
2019-06-08T10:01:13.957Z,1152.00
2019-06-08T10:02:13.302Z,1152.00
2019-06-08T10:03:12.990Z,1152.00
2019-06-08T10:04:12.922Z,1152.00
2019-06-08T10:05:12.897Z,1152.00
2019-06-08T10:06:12.909Z,1152.00
2019-06-08T10:07:12.876Z,1160.00
2019-06-08T10:08:12.856Z,1156.00
2019-06-08T10:09:12.854Z,1160.00
2019-06-08T10:10:12.849Z,1156.00
2019-06-08T10:11:12.837Z,1156.00
2019-06-08T10:12:12.817Z,1156.00
2019-06-08T10:13:12.813Z,1156.00
2019-06-08T10:14:13.038Z,1164.00
2019-06-08T10:15:12.844Z,1164.00
2019-06-08T10:16:12.786Z,1172.00
2019-06-08T10:17:12.755Z,1164.00
2019-06-08T10:18:12.737Z,1168.00
2019-06-08T10:19:12.725Z,1168.00
2019-06-08T10:20:12.719Z,1172.00
2019-06-08T10:21:12.769Z,1196.00
2019-06-08T10:22:12.685Z,1176.00
2019-06-08T10:23:30.368Z,1172.00
2019-06-08T10:24:13.664Z,1172.00
2019-06-08T10:25:12.645Z,1188.00
2019-06-08T10:26:12.653Z,1188.00
2019-06-08T10:27:12.635Z,1200.00
2019-06-08T10:28:15.875Z,1184.00
2019-06-08T10:29:13.595Z,1188.00
2019-06-08T10:30:12.588Z,1184.00
2019-06-08T10:31:12.587Z,1188.00
2019-06-08T10:32:12.583Z,1184.00
2019-06-08T10:33:12.544Z,1196.00
2019-06-08T10:34:12.550Z,1196.00
2019-06-08T10:35:12.527Z,1196.00
2019-06-08T10:36:13.076Z,1224.00
2019-06-08T10:37:13.500Z,1204.00
2019-06-08T10:38:12.484Z,1208.00
2019-06-08T10:39:12.484Z,1204.00
2019-06-08T10:40:12.465Z,1204.00
2019-06-08T10:41:20.914Z,1204.00
2019-06-08T10:42:13.449Z,1208.00
2019-06-08T10:43:12.424Z,1208.00
2019-06-08T10:44:14.311Z,1208.00
2019-06-08T10:45:14.742Z,1224.00
2019-06-08T10:46:17.127Z,1216.00
2019-06-08T10:47:13.371Z,1216.00
2019-06-08T10:48:12.363Z,1216.00
2019-06-08T10:49:14.216Z,1216.00
2019-06-08T10:50:15.419Z,1228.00
2019-06-08T10:51:13.118Z,1228.00
2019-06-08T10:52:12.523Z,1228.00
2019-06-08T10:53:13.671Z,1232.00
2019-06-08T10:54:12.302Z,1236.00
2019-06-08T10:55:12.651Z,1236.00
2019-06-08T10:56:12.565Z,1240.00
2019-06-08T10:57:12.308Z,1236.00
2019-06-08T10:58:12.235Z,1236.00
2019-06-08T10:59:12.546Z,1240.00
2019-06-08T11:00:20.116Z,1248.00
2019-06-08T11:01:13.572Z,1248.00
2019-06-08T11:02:14.203Z,1252.00
2019-06-08T11:03:12.184Z,1252.00
2019-06-08T11:04:12.185Z,1260.00
2019-06-08T11:05:14.053Z,1260.00
2019-06-08T11:06:13.319Z,1264.00
2019-06-08T11:07:15.533Z,1268.00
2019-06-08T11:08:14.456Z,1276.00
2019-06-08T11:09:14.836Z,1268.00
2019-06-08T11:10:12.653Z,1264.00
2019-06-08T11:11:12.141Z,1268.00
2019-06-08T11:12:14.943Z,1272.00
2019-06-08T11:13:14.889Z,1276.00
2019-06-08T11:14:13.173Z,1276.00
2019-06-08T11:15:12.036Z,1276.00
2019-06-08T11:16:13.258Z,1280.00
2019-06-08T11:17:12.015Z,1280.00
2019-06-08T11:18:13.540Z,1288.00
2019-06-08T11:19:13.761Z,1296.00
2019-06-08T11:20:13.677Z,1288.00
2019-06-08T11:21:12.879Z,1288.00
2019-06-08T11:22:14.436Z,1292.00
2019-06-08T11:23:12.560Z,1300.00
2019-06-08T11:24:23.316Z,1304.00
2019-06-08T11:25:16.142Z,1320.00
2019-06-08T11:26:19.719Z,1316.00
2019-06-08T11:27:13.200Z,1316.00
2019-06-08T11:28:14.973Z,1316.00
2019-06-08T11:29:13.831Z,1324.00
2019-06-08T11:30:20.385Z,1320.00
2019-06-08T11:31:15.839Z,1332.00
2019-06-08T11:32:12.811Z,1336.00
2019-06-08T11:33:12.565Z,1340.00
2019-06-08T11:34:12.768Z,1332.00
2019-06-08T11:35:12.660Z,1332.00
2019-06-08T11:36:14.950Z,1340.00
2019-06-08T11:37:13.583Z,1352.00
2019-06-08T11:38:12.756Z,1356.00
2019-06-08T11:39:12.790Z,1364.00
2019-06-08T11:40:12.978Z,1364.00
2019-06-08T11:41:13.630Z,1368.00
2019-06-08T11:42:13.064Z,1384.00
2019-06-08T11:43:12.778Z,1380.00
2019-06-08T11:44:14.675Z,1384.00
2019-06-08T11:45:13.056Z,1392.00
2019-06-08T11:46:12.788Z,1400.00
2019-06-08T11:47:13.350Z,1412.00
2019-06-08T11:48:12.398Z,1408.00
2019-06-08T11:49:14.884Z,1404.00
2019-06-08T11:50:13.266Z,1408.00
2019-06-08T11:51:12.989Z,1412.00
2019-06-08T11:52:11.626Z,1432.00
2019-06-08T11:53:14.390Z,1432.00
2019-06-08T11:54:27.115Z,1432.00
2019-06-08T11:55:13.156Z,1428.00
2019-06-08T11:56:13.425Z,1424.00
2019-06-08T11:57:12.907Z,1428.00
2019-06-08T11:58:13.668Z,1436.00
2019-06-08T11:59:14.225Z,1444.00
2019-06-08T12:00:24.301Z,1456.00
2019-06-08T19:37:36.284Z,12.00
2019-06-08T19:38:38.436Z,8.00
2019-06-08T19:39:36.262Z,8.00
2019-06-08T19:40:37.894Z,8.00
2019-06-08T19:41:38.113Z,8.00
2019-06-08T19:42:44.708Z,12.00
2019-06-08T19:43:39.045Z,8.00
2019-06-08T19:44:38.574Z,8.00
2019-06-08T19:45:39.963Z,8.00
2019-06-08T19:46:36.171Z,8.00
2019-06-08T19:47:36.151Z,8.00
2019-06-08T19:48:36.981Z,4.00
2019-06-08T19:49:38.296Z,8.00
2019-06-08T19:50:38.208Z,4.00
2019-06-08T19:51:38.234Z,0.00
2019-06-08T19:52:41.013Z,4.00
2019-06-08T19:53:42.215Z,4.00
2019-06-08T19:54:38.691Z,0.00
2019-06-08T19:55:36.075Z,0.00
2019-06-08T19:56:38.590Z,4.00
2019-06-08T19:57:36.239Z,4.00
2019-06-08T19:58:50.045Z,0.00
2019-06-08T19:59:38.254Z,0.00
2019-06-08T20:00:38.660Z,0.00
2019-06-08T20:01:37.931Z,0.00
2019-06-08T20:02:36.039Z,0.00
2019-06-08T20:03:37.893Z,0.00
2019-06-08T20:04:38.473Z,0.00
2019-06-08T20:05:37.825Z,0.00
2019-06-08T20:06:37.622Z,0.00
2019-06-08T20:07:37.854Z,0.00